sensor_id;sensor_type;location;lat;lon;timestamp;temperature;humidity
43920;DHT22;29578;51.946;5.874;2022-11-18T00:00:05;8.70;90.90
43920;DHT22;29578;51.946;5.874;2022-11-18T00:02:32;8.70;90.90
43920;DHT22;29578;51.946;5.874;2022-11-18T00:04:58;8.70;90.90
43920;DHT22;29578;51.946;5.874;2022-11-18T00:07:23;8.70;90.90
43920;DHT22;29578;51.946;5.874;2022-11-18T00:09:49;8.70;90.90
43920;DHT22;29578;51.946;5.874;2022-11-18T00:12:14;8.70;90.80
43920;DHT22;29578;51.946;5.874;2022-11-18T00:14:51;8.60;90.80
43920;DHT22;29578;51.946;5.874;2022-11-18T00:17:17;8.70;90.80
43920;DHT22;29578;51.946;5.874;2022-11-18T00:19:42;8.70;90.90
43920;DHT22;29578;51.946;5.874;2022-11-18T00:22:11;8.60;90.80
43920;DHT22;29578;51.946;5.874;2022-11-18T00:24:37;8.60;90.90
43920;DHT22;29578;51.946;5.874;2022-11-18T00:27:03;8.60;90.90
43920;DHT22;29578;51.946;5.874;2022-11-18T00:29:29;8.50;90.90
43920;DHT22;29578;51.946;5.874;2022-11-18T00:31:56;8.50;90.90
43920;DHT22;29578;51.946;5.874;2022-11-18T00:34:23;8.60;91.00
43920;DHT22;29578;51.946;5.874;2022-11-18T00:36:49;8.50;91.00
43920;DHT22;29578;51.946;5.874;2022-11-18T00:39:17;8.50;91.00
43920;DHT22;29578;51.946;5.874;2022-11-18T00:41:43;8.50;91.10
43920;DHT22;29578;51.946;5.874;2022-11-18T00:44:23;8.40;91.00
43920;DHT22;29578;51.946;5.874;2022-11-18T00:46:49;8.40;91.00
43920;DHT22;29578;51.946;5.874;2022-11-18T00:49:14;8.40;91.00
43920;DHT22;29578;51.946;5.874;2022-11-18T00:51:40;8.40;91.10
43920;DHT22;29578;51.946;5.874;2022-11-18T00:54:05;8.40;91.10
43920;DHT22;29578;51.946;5.874;2022-11-18T00:56:31;8.40;91.10
43920;DHT22;29578;51.946;5.874;2022-11-18T00:58:57;8.40;91.10
43920;DHT22;29578;51.946;5.874;2022-11-18T01:01:23;8.40;91.00
43920;DHT22;29578;51.946;5.874;2022-11-18T01:03:49;8.40;91.00
43920;DHT22;29578;51.946;5.874;2022-11-18T01:06:14;8.40;91.00
43920;DHT22;29578;51.946;5.874;2022-11-18T01:08:40;8.40;91.10
43920;DHT22;29578;51.946;5.874;2022-11-18T01:11:06;8.40;91.10
43920;DHT22;29578;51.946;5.874;2022-11-18T01:13:48;8.50;91.10
43920;DHT22;29578;51.946;5.874;2022-11-18T01:16:18;8.40;91.00
43920;DHT22;29578;51.946;5.874;2022-11-18T01:18:43;8.40;91.00
43920;DHT22;29578;51.946;5.874;2022-11-18T01:21:09;8.50;91.00
43920;DHT22;29578;51.946;5.874;2022-11-18T01:23:35;8.50;91.00
43920;DHT22;29578;51.946;5.874;2022-11-18T01:26:04;8.50;91.00
43920;DHT22;29578;51.946;5.874;2022-11-18T01:28:30;8.50;91.00
43920;DHT22;29578;51.946;5.874;2022-11-18T01:31:04;8.60;91.00
43920;DHT22;29578;51.946;5.874;2022-11-18T01:33:30;8.50;90.90
43920;DHT22;29578;51.946;5.874;2022-11-18T01:35:56;8.50;90.90
43920;DHT22;29578;51.946;5.874;2022-11-18T01:38:22;8.50;90.90
43920;DHT22;29578;51.946;5.874;2022-11-18T01:40:47;8.60;91.00
43920;DHT22;29578;51.946;5.874;2022-11-18T01:43:16;8.50;91.00
43920;DHT22;29578;51.946;5.874;2022-11-18T01:45:43;8.50;91.00
43920;DHT22;29578;51.946;5.874;2022-11-18T01:50:51;8.50;91.00
43920;DHT22;29578;51.946;5.874;2022-11-18T01:53:24;8.50;91.00
43920;DHT22;29578;51.946;5.874;2022-11-18T01:55:54;8.50;91.00
43920;DHT22;29578;51.946;5.874;2022-11-18T01:58:27;8.50;91.00
43920;DHT22;29578;51.946;5.874;2022-11-18T02:00:54;8.50;91.00
43920;DHT22;29578;51.946;5.874;2022-11-18T02:03:20;8.50;91.00
43920;DHT22;29578;51.946;5.874;2022-11-18T02:05:47;8.50;91.00
43920;DHT22;29578;51.946;5.874;2022-11-18T02:08:14;8.50;91.00
43920;DHT22;29578;51.946;5.874;2022-11-18T02:10:42;8.60;91.00
43920;DHT22;29578;51.946;5.874;2022-11-18T02:13:07;8.50;91.00
43920;DHT22;29578;51.946;5.874;2022-11-18T02:15:45;8.50;91.00
43920;DHT22;29578;51.946;5.874;2022-11-18T02:18:36;8.60;91.00
43920;DHT22;29578;51.946;5.874;2022-11-18T02:21:19;8.70;91.10
43920;DHT22;29578;51.946;5.874;2022-11-18T02:24:09;8.60;91.00
43920;DHT22;29578;51.946;5.874;2022-11-18T02:29:46;8.50;91.00
43920;DHT22;29578;51.946;5.874;2022-11-18T02:32:20;8.50;91.00
43920;DHT22;29578;51.946;5.874;2022-11-18T02:35:16;8.50;91.00
43920;DHT22;29578;51.946;5.874;2022-11-18T02:37:55;8.50;91.00
43920;DHT22;29578;51.946;5.874;2022-11-18T02:40:28;8.50;91.10
43920;DHT22;29578;51.946;5.874;2022-11-18T02:43:11;8.50;91.10
43920;DHT22;29578;51.946;5.874;2022-11-18T02:45:41;8.50;91.10
43920;DHT22;29578;51.946;5.874;2022-11-18T02:48:09;8.50;91.40
43920;DHT22;29578;51.946;5.874;2022-11-18T02:50:36;8.50;91.10
43920;DHT22;29578;51.946;5.874;2022-11-18T02:53:05;8.50;91.10
43920;DHT22;29578;51.946;5.874;2022-11-18T02:55:34;8.50;91.10
43920;DHT22;29578;51.946;5.874;2022-11-18T02:58:03;8.60;91.20
43920;DHT22;29578;51.946;5.874;2022-11-18T03:00:31;8.50;91.10
43920;DHT22;29578;51.946;5.874;2022-11-18T03:02:57;8.50;91.10
43920;DHT22;29578;51.946;5.874;2022-11-18T03:05:38;8.50;91.10
43920;DHT22;29578;51.946;5.874;2022-11-18T03:08:12;8.60;91.10
43920;DHT22;29578;51.946;5.874;2022-11-18T03:10:46;8.60;91.10
43920;DHT22;29578;51.946;5.874;2022-11-18T03:13:22;8.50;91.10
43920;DHT22;29578;51.946;5.874;2022-11-18T03:16:10;8.60;91.10
43920;DHT22;29578;51.946;5.874;2022-11-18T03:19:01;8.70;91.10
43920;DHT22;29578;51.946;5.874;2022-11-18T03:21:39;8.70;91.10
43920;DHT22;29578;51.946;5.874;2022-11-18T03:24:12;8.80;91.10
43920;DHT22;29578;51.946;5.874;2022-11-18T03:26:43;8.70;91.10
43920;DHT22;29578;51.946;5.874;2022-11-18T03:29:17;8.80;91.10
43920;DHT22;29578;51.946;5.874;2022-11-18T03:31:49;8.70;91.10
43920;DHT22;29578;51.946;5.874;2022-11-18T03:34:30;8.70;91.00
43920;DHT22;29578;51.946;5.874;2022-11-18T03:37:00;8.70;91.00
43920;DHT22;29578;51.946;5.874;2022-11-18T03:39:30;8.70;91.00
43920;DHT22;29578;51.946;5.874;2022-11-18T03:42:08;8.70;91.00
43920;DHT22;29578;51.946;5.874;2022-11-18T03:44:37;8.70;91.10
43920;DHT22;29578;51.946;5.874;2022-11-18T03:47:10;8.80;91.10
43920;DHT22;29578;51.946;5.874;2022-11-18T03:49:42;8.80;91.10
43920;DHT22;29578;51.946;5.874;2022-11-18T03:52:14;8.80;91.10
43920;DHT22;29578;51.946;5.874;2022-11-18T03:54:43;8.80;91.40
43920;DHT22;29578;51.946;5.874;2022-11-18T03:57:14;8.80;91.10
43920;DHT22;29578;51.946;5.874;2022-11-18T03:59:46;8.80;91.10
43920;DHT22;29578;51.946;5.874;2022-11-18T04:02:16;8.80;91.10
43920;DHT22;29578;51.946;5.874;2022-11-18T04:04:45;8.70;91.10
43920;DHT22;29578;51.946;5.874;2022-11-18T04:07:23;8.80;91.10
43920;DHT22;29578;51.946;5.874;2022-11-18T04:09:56;8.80;91.10
43920;DHT22;29578;51.946;5.874;2022-11-18T04:12:22;8.80;91.20
43920;DHT22;29578;51.946;5.874;2022-11-18T04:14:49;8.80;91.20
43920;DHT22;29578;51.946;5.874;2022-11-18T04:17:21;8.80;91.20
43920;DHT22;29578;51.946;5.874;2022-11-18T04:19:48;8.80;91.20
43920;DHT22;29578;51.946;5.874;2022-11-18T04:22:14;8.80;91.20
43920;DHT22;29578;51.946;5.874;2022-11-18T04:24:40;8.80;91.20
43920;DHT22;29578;51.946;5.874;2022-11-18T04:27:06;8.80;91.20
43920;DHT22;29578;51.946;5.874;2022-11-18T04:29:32;8.90;91.20
43920;DHT22;29578;51.946;5.874;2022-11-18T04:31:59;8.80;91.20
43920;DHT22;29578;51.946;5.874;2022-11-18T04:34:25;8.80;91.20
43920;DHT22;29578;51.946;5.874;2022-11-18T04:36:50;8.80;91.20
43920;DHT22;29578;51.946;5.874;2022-11-18T04:39:16;8.80;91.50
43920;DHT22;29578;51.946;5.874;2022-11-18T04:41:43;8.90;91.30
43920;DHT22;29578;51.946;5.874;2022-11-18T04:44:22;8.80;91.30
43920;DHT22;29578;51.946;5.874;2022-11-18T04:46:48;8.80;91.30
43920;DHT22;29578;51.946;5.874;2022-11-18T04:49:14;8.90;91.30
43920;DHT22;29578;51.946;5.874;2022-11-18T04:51:41;8.90;91.30
43920;DHT22;29578;51.946;5.874;2022-11-18T04:54:07;8.80;91.30
43920;DHT22;29578;51.946;5.874;2022-11-18T04:56:33;8.90;91.30
43920;DHT22;29578;51.946;5.874;2022-11-18T04:59:00;8.90;91.30
43920;DHT22;29578;51.946;5.874;2022-11-18T05:01:27;8.80;91.30
43920;DHT22;29578;51.946;5.874;2022-11-18T05:03:53;9.00;91.40
43920;DHT22;29578;51.946;5.874;2022-11-18T05:06:19;8.80;91.30
43920;DHT22;29578;51.946;5.874;2022-11-18T05:08:45;8.90;91.40
43920;DHT22;29578;51.946;5.874;2022-11-18T05:11:11;8.90;91.40
43920;DHT22;29578;51.946;5.874;2022-11-18T05:13:52;9.00;91.40
43920;DHT22;29578;51.946;5.874;2022-11-18T05:16:18;8.80;91.40
43920;DHT22;29578;51.946;5.874;2022-11-18T05:18:44;8.90;91.40
43920;DHT22;29578;51.946;5.874;2022-11-18T05:21:10;8.90;91.40
43920;DHT22;29578;51.946;5.874;2022-11-18T05:23:36;8.80;91.40
43920;DHT22;29578;51.946;5.874;2022-11-18T05:26:03;8.90;91.40
43920;DHT22;29578;51.946;5.874;2022-11-18T05:28:29;8.90;91.40
43920;DHT22;29578;51.946;5.874;2022-11-18T05:30:55;8.90;91.40
43920;DHT22;29578;51.946;5.874;2022-11-18T05:33:20;8.90;91.40
43920;DHT22;29578;51.946;5.874;2022-11-18T05:35:46;8.90;91.40
43920;DHT22;29578;51.946;5.874;2022-11-18T05:38:12;8.90;91.40
43920;DHT22;29578;51.946;5.874;2022-11-18T05:40:37;8.90;91.40
43920;DHT22;29578;51.946;5.874;2022-11-18T05:43:03;8.80;91.40
43920;DHT22;29578;51.946;5.874;2022-11-18T05:45:37;8.90;91.50
43920;DHT22;29578;51.946;5.874;2022-11-18T05:48:03;8.90;91.50
43920;DHT22;29578;51.946;5.874;2022-11-18T05:50:30;8.90;91.50
43920;DHT22;29578;51.946;5.874;2022-11-18T05:52:57;8.90;91.40
43920;DHT22;29578;51.946;5.874;2022-11-18T05:55:26;8.90;91.50
43920;DHT22;29578;51.946;5.874;2022-11-18T05:57:53;8.90;91.40
43920;DHT22;29578;51.946;5.874;2022-11-18T06:00:19;8.80;91.40
43920;DHT22;29578;51.946;5.874;2022-11-18T06:02:46;8.90;91.40
43920;DHT22;29578;51.946;5.874;2022-11-18T06:05:13;8.90;91.50
43920;DHT22;29578;51.946;5.874;2022-11-18T06:07:42;8.80;91.50
43920;DHT22;29578;51.946;5.874;2022-11-18T06:12:51;8.80;91.50
43920;DHT22;29578;51.946;5.874;2022-11-18T06:15:23;8.80;91.60
43920;DHT22;29578;51.946;5.874;2022-11-18T06:17:56;8.80;91.50
43920;DHT22;29578;51.946;5.874;2022-11-18T06:20:24;8.70;91.50
43920;DHT22;29578;51.946;5.874;2022-11-18T06:22:53;8.70;91.60
43920;DHT22;29578;51.946;5.874;2022-11-18T06:25:20;8.60;91.60
43920;DHT22;29578;51.946;5.874;2022-11-18T06:27:46;8.60;91.60
43920;DHT22;29578;51.946;5.874;2022-11-18T06:30:12;8.60;91.60
43920;DHT22;29578;51.946;5.874;2022-11-18T06:32:38;8.60;91.70
43920;DHT22;29578;51.946;5.874;2022-11-18T06:35:04;8.50;91.70
43920;DHT22;29578;51.946;5.874;2022-11-18T06:37:30;8.60;92.00
43920;DHT22;29578;51.946;5.874;2022-11-18T06:39:56;8.40;91.60
43920;DHT22;29578;51.946;5.874;2022-11-18T06:42:21;8.40;91.70
43920;DHT22;29578;51.946;5.874;2022-11-18T06:44:59;8.40;91.70
43920;DHT22;29578;51.946;5.874;2022-11-18T06:47:24;8.40;91.80
43920;DHT22;29578;51.946;5.874;2022-11-18T06:49:50;8.30;91.70
43920;DHT22;29578;51.946;5.874;2022-11-18T06:52:16;8.40;91.80
43920;DHT22;29578;51.946;5.874;2022-11-18T06:54:41;8.40;91.80
43920;DHT22;29578;51.946;5.874;2022-11-18T06:57:07;8.30;91.80
43920;DHT22;29578;51.946;5.874;2022-11-18T06:59:32;8.30;91.80
43920;DHT22;29578;51.946;5.874;2022-11-18T07:01:58;8.20;91.80
43920;DHT22;29578;51.946;5.874;2022-11-18T07:04:23;8.20;91.80
43920;DHT22;29578;51.946;5.874;2022-11-18T07:06:49;8.10;91.80
43920;DHT22;29578;51.946;5.874;2022-11-18T07:09:15;8.20;91.90
43920;DHT22;29578;51.946;5.874;2022-11-18T07:11:40;8.10;91.80
43920;DHT22;29578;51.946;5.874;2022-11-18T07:14:07;8.10;91.90
43920;DHT22;29578;51.946;5.874;2022-11-18T07:16:33;8.10;91.90
43920;DHT22;29578;51.946;5.874;2022-11-18T07:19:00;8.10;91.90
43920;DHT22;29578;51.946;5.874;2022-11-18T07:21:27;8.10;91.90
43920;DHT22;29578;51.946;5.874;2022-11-18T07:23:55;8.10;91.90
43920;DHT22;29578;51.946;5.874;2022-11-18T07:26:21;8.00;91.90
43920;DHT22;29578;51.946;5.874;2022-11-18T07:28:47;8.00;91.90
43920;DHT22;29578;51.946;5.874;2022-11-18T07:31:15;8.00;91.90
43920;DHT22;29578;51.946;5.874;2022-11-18T07:33:41;8.00;91.90
43920;DHT22;29578;51.946;5.874;2022-11-18T07:36:10;8.00;91.90
43920;DHT22;29578;51.946;5.874;2022-11-18T07:38:36;7.90;91.90
43920;DHT22;29578;51.946;5.874;2022-11-18T07:41:08;8.00;91.90
43920;DHT22;29578;51.946;5.874;2022-11-18T07:43:35;8.00;91.90
43920;DHT22;29578;51.946;5.874;2022-11-18T07:46:14;8.00;91.90
43920;DHT22;29578;51.946;5.874;2022-11-18T07:48:41;8.00;91.90
43920;DHT22;29578;51.946;5.874;2022-11-18T07:51:07;8.00;91.90
43920;DHT22;29578;51.946;5.874;2022-11-18T07:53:33;8.00;91.90
43920;DHT22;29578;51.946;5.874;2022-11-18T07:55:59;7.90;91.90
43920;DHT22;29578;51.946;5.874;2022-11-18T07:58:25;8.00;91.90
43920;DHT22;29578;51.946;5.874;2022-11-18T08:12:48;8.00;91.80
43920;DHT22;29578;51.946;5.874;2022-11-18T08:52:16;8.40;91.30
43920;DHT22;29578;51.946;5.874;2022-11-18T08:54:59;8.50;91.30
43920;DHT22;29578;51.946;5.874;2022-11-18T08:58:34;8.50;91.30
43920;DHT22;29578;51.946;5.874;2022-11-18T09:08:52;8.50;91.40
43920;DHT22;29578;51.946;5.874;2022-11-18T09:11:23;8.50;91.40
43920;DHT22;29578;51.946;5.874;2022-11-18T09:13:55;8.50;91.30
43920;DHT22;29578;51.946;5.874;2022-11-18T09:16:26;8.50;91.30
43920;DHT22;29578;51.946;5.874;2022-11-18T09:18:58;8.60;91.30
43920;DHT22;29578;51.946;5.874;2022-11-18T09:26:05;8.70;91.20
43920;DHT22;29578;51.946;5.874;2022-11-18T09:33:23;8.70;91.20
43920;DHT22;29578;51.946;5.874;2022-11-18T11:07:26;9.80;90.60
43920;DHT22;29578;51.946;5.874;2022-11-18T11:10:28;9.80;90.70
43920;DHT22;29578;51.946;5.874;2022-11-18T11:20:05;10.10;90.60
43920;DHT22;29578;51.946;5.874;2022-11-18T11:22:46;10.20;90.50
43920;DHT22;29578;51.946;5.874;2022-11-18T11:29:06;10.20;90.40
43920;DHT22;29578;51.946;5.874;2022-11-18T11:31:49;10.20;90.40
43920;DHT22;29578;51.946;5.874;2022-11-18T11:34:43;10.30;90.40
43920;DHT22;29578;51.946;5.874;2022-11-18T11:37:31;10.50;90.40
43920;DHT22;29578;51.946;5.874;2022-11-18T11:46:22;10.60;90.20
43920;DHT22;29578;51.946;5.874;2022-11-18T11:48:58;10.60;90.30
43920;DHT22;29578;51.946;5.874;2022-11-18T11:51:35;10.60;90.30
43920;DHT22;29578;51.946;5.874;2022-11-18T11:54:37;10.50;90.30
43920;DHT22;29578;51.946;5.874;2022-11-18T11:57:13;10.60;90.40
43920;DHT22;29578;51.946;5.874;2022-11-18T12:00:00;10.50;90.40
43920;DHT22;29578;51.946;5.874;2022-11-18T12:02:55;10.50;90.50
43920;DHT22;29578;51.946;5.874;2022-11-18T12:05:36;10.60;90.50
43920;DHT22;29578;51.946;5.874;2022-11-18T12:08:11;10.60;90.60
43920;DHT22;29578;51.946;5.874;2022-11-18T12:10:45;10.60;90.50
43920;DHT22;29578;51.946;5.874;2022-11-18T12:13:32;10.60;90.50
43920;DHT22;29578;51.946;5.874;2022-11-18T12:16:24;10.70;90.60
43920;DHT22;29578;51.946;5.874;2022-11-18T12:19:11;10.60;90.60
43920;DHT22;29578;51.946;5.874;2022-11-18T12:21:58;10.60;90.60
43920;DHT22;29578;51.946;5.874;2022-11-18T12:24:28;10.60;90.60
43920;DHT22;29578;51.946;5.874;2022-11-18T12:26:58;10.70;90.60
43920;DHT22;29578;51.946;5.874;2022-11-18T12:29:26;10.70;90.60
43920;DHT22;29578;51.946;5.874;2022-11-18T12:31:57;10.80;90.50
43920;DHT22;29578;51.946;5.874;2022-11-18T12:34:34;10.80;90.80
43920;DHT22;29578;51.946;5.874;2022-11-18T12:37:41;10.80;90.40
43920;DHT22;29578;51.946;5.874;2022-11-18T12:40:09;10.80;90.40
43920;DHT22;29578;51.946;5.874;2022-11-18T12:42:40;10.80;90.40
43920;DHT22;29578;51.946;5.874;2022-11-18T12:45:46;10.80;90.40
43920;DHT22;29578;51.946;5.874;2022-11-18T12:48:31;10.90;90.40
43920;DHT22;29578;51.946;5.874;2022-11-18T12:50:59;10.90;90.40
43920;DHT22;29578;51.946;5.874;2022-11-18T12:53:37;10.90;90.40
43920;DHT22;29578;51.946;5.874;2022-11-18T12:56:22;10.90;90.40
43920;DHT22;29578;51.946;5.874;2022-11-18T12:58:54;11.00;90.50
43920;DHT22;29578;51.946;5.874;2022-11-18T13:01:24;11.00;90.40
43920;DHT22;29578;51.946;5.874;2022-11-18T13:03:50;11.00;90.40
43920;DHT22;29578;51.946;5.874;2022-11-18T13:06:23;10.90;90.30
43920;DHT22;29578;51.946;5.874;2022-11-18T13:08:52;11.00;90.40
43920;DHT22;29578;51.946;5.874;2022-11-18T13:11:21;10.90;90.30
43920;DHT22;29578;51.946;5.874;2022-11-18T13:14:00;11.00;90.30
43920;DHT22;29578;51.946;5.874;2022-11-18T13:16:39;10.90;90.40
43920;DHT22;29578;51.946;5.874;2022-11-18T13:19:22;10.90;90.40
43920;DHT22;29578;51.946;5.874;2022-11-18T13:40:37;11.10;90.30
43920;DHT22;29578;51.946;5.874;2022-11-18T13:44:11;11.20;90.20
43920;DHT22;29578;51.946;5.874;2022-11-18T13:47:04;11.40;90.00
43920;DHT22;29578;51.946;5.874;2022-11-18T13:49:50;11.40;89.90
43920;DHT22;29578;51.946;5.874;2022-11-18T13:52:30;11.50;89.70
43920;DHT22;29578;51.946;5.874;2022-11-18T13:55:48;11.40;89.50
43920;DHT22;29578;51.946;5.874;2022-11-18T13:58:44;11.40;89.70
43920;DHT22;29578;51.946;5.874;2022-11-18T14:01:22;11.30;89.80
43920;DHT22;29578;51.946;5.874;2022-11-18T14:03:54;11.20;89.90
43920;DHT22;29578;51.946;5.874;2022-11-18T14:06:27;11.20;90.00
43920;DHT22;29578;51.946;5.874;2022-11-18T14:09:17;11.20;90.00
43920;DHT22;29578;51.946;5.874;2022-11-18T14:11:56;11.10;90.10
43920;DHT22;29578;51.946;5.874;2022-11-18T14:14:28;11.10;90.10
43920;DHT22;29578;51.946;5.874;2022-11-18T14:32:22;11.20;90.10
43920;DHT22;29578;51.946;5.874;2022-11-18T14:35:02;11.20;90.10
43920;DHT22;29578;51.946;5.874;2022-11-18T14:37:29;11.20;90.10
43920;DHT22;29578;51.946;5.874;2022-11-18T14:39:56;11.20;90.10
43920;DHT22;29578;51.946;5.874;2022-11-18T14:42:22;11.20;90.10
43920;DHT22;29578;51.946;5.874;2022-11-18T14:44:49;11.20;90.10
43920;DHT22;29578;51.946;5.874;2022-11-18T14:47:27;11.20;90.10
43920;DHT22;29578;51.946;5.874;2022-11-18T14:49:53;11.20;90.10
43920;DHT22;29578;51.946;5.874;2022-11-18T14:52:19;11.20;90.10
43920;DHT22;29578;51.946;5.874;2022-11-18T14:54:45;11.10;90.10
43920;DHT22;29578;51.946;5.874;2022-11-18T14:57:14;11.00;90.10
43920;DHT22;29578;51.946;5.874;2022-11-18T14:59:40;11.10;90.20
43920;DHT22;29578;51.946;5.874;2022-11-18T15:02:13;11.00;90.20
43920;DHT22;29578;51.946;5.874;2022-11-18T15:04:39;10.90;90.30
43920;DHT22;29578;51.946;5.874;2022-11-18T15:07:05;10.90;90.40
43920;DHT22;29578;51.946;5.874;2022-11-18T15:09:33;10.80;90.40
43920;DHT22;29578;51.946;5.874;2022-11-18T15:11:58;10.80;90.40
43920;DHT22;29578;51.946;5.874;2022-11-18T15:14:24;10.70;90.50
43920;DHT22;29578;51.946;5.874;2022-11-18T15:16:50;10.60;90.60
43920;DHT22;29578;51.946;5.874;2022-11-18T15:19:15;10.60;90.60
43920;DHT22;29578;51.946;5.874;2022-11-18T15:21:42;10.60;90.70
43920;DHT22;29578;51.946;5.874;2022-11-18T15:24:07;10.50;90.70
43920;DHT22;29578;51.946;5.874;2022-11-18T15:26:36;10.40;90.80
43920;DHT22;29578;51.946;5.874;2022-11-18T15:29:03;10.30;90.80
43920;DHT22;29578;51.946;5.874;2022-11-18T15:31:29;10.30;90.80
43920;DHT22;29578;51.946;5.874;2022-11-18T15:33:54;10.30;90.80
43920;DHT22;29578;51.946;5.874;2022-11-18T15:36:23;10.30;90.80
43920;DHT22;29578;51.946;5.874;2022-11-18T15:38:50;10.30;90.90
43920;DHT22;29578;51.946;5.874;2022-11-18T15:41:26;10.20;90.80
43920;DHT22;29578;51.946;5.874;2022-11-18T15:43:53;10.20;90.80
43920;DHT22;29578;51.946;5.874;2022-11-18T15:46:21;10.30;90.90
43920;DHT22;29578;51.946;5.874;2022-11-18T15:48:50;10.20;90.90
43920;DHT22;29578;51.946;5.874;2022-11-18T15:51:16;10.10;90.90
43920;DHT22;29578;51.946;5.874;2022-11-18T15:53:41;10.00;90.90
43920;DHT22;29578;51.946;5.874;2022-11-18T15:56:26;10.00;90.90
43920;DHT22;29578;51.946;5.874;2022-11-18T15:59:11;9.90;91.00
43920;DHT22;29578;51.946;5.874;2022-11-18T16:01:39;9.80;91.00
43920;DHT22;29578;51.946;5.874;2022-11-18T16:04:07;9.80;91.10
43920;DHT22;29578;51.946;5.874;2022-11-18T16:06:33;9.70;91.10
43920;DHT22;29578;51.946;5.874;2022-11-18T16:08:59;9.60;91.10
43920;DHT22;29578;51.946;5.874;2022-11-18T16:11:25;9.60;91.20
43920;DHT22;29578;51.946;5.874;2022-11-18T16:14:08;9.50;91.20
43920;DHT22;29578;51.946;5.874;2022-11-18T16:16:35;9.40;91.20
43920;DHT22;29578;51.946;5.874;2022-11-18T16:19:04;9.40;91.20
43920;DHT22;29578;51.946;5.874;2022-11-18T16:21:32;9.30;91.20
43920;DHT22;29578;51.946;5.874;2022-11-18T16:24:00;9.30;91.30
43920;DHT22;29578;51.946;5.874;2022-11-18T16:26:26;9.30;91.30
43920;DHT22;29578;51.946;5.874;2022-11-18T16:28:55;9.20;91.30
43920;DHT22;29578;51.946;5.874;2022-11-18T16:31:21;9.20;91.30
43920;DHT22;29578;51.946;5.874;2022-11-18T16:33:57;9.10;91.20
43920;DHT22;29578;51.946;5.874;2022-11-18T16:36:25;9.10;91.30
43920;DHT22;29578;51.946;5.874;2022-11-18T16:38:51;9.10;91.30
43920;DHT22;29578;51.946;5.874;2022-11-18T16:41:17;9.10;91.30
43920;DHT22;29578;51.946;5.874;2022-11-18T16:44:00;9.10;91.30
43920;DHT22;29578;51.946;5.874;2022-11-18T16:46:28;9.10;91.30
43920;DHT22;29578;51.946;5.874;2022-11-18T16:48:54;9.00;91.30
43920;DHT22;29578;51.946;5.874;2022-11-18T16:51:24;9.00;91.30
43920;DHT22;29578;51.946;5.874;2022-11-18T16:53:54;9.00;91.30
43920;DHT22;29578;51.946;5.874;2022-11-18T16:56:22;9.00;91.30
43920;DHT22;29578;51.946;5.874;2022-11-18T16:58:48;9.00;91.30
43920;DHT22;29578;51.946;5.874;2022-11-18T17:01:14;9.00;91.20
43920;DHT22;29578;51.946;5.874;2022-11-18T17:03:40;9.00;91.20
43920;DHT22;29578;51.946;5.874;2022-11-18T17:06:07;9.00;91.20
43920;DHT22;29578;51.946;5.874;2022-11-18T17:08:34;9.00;91.20
43920;DHT22;29578;51.946;5.874;2022-11-18T17:11:06;9.10;91.20
43920;DHT22;29578;51.946;5.874;2022-11-18T17:13:31;9.00;91.10
43920;DHT22;29578;51.946;5.874;2022-11-18T17:15:57;9.10;91.20
43920;DHT22;29578;51.946;5.874;2022-11-18T17:18:23;9.10;91.10
43920;DHT22;29578;51.946;5.874;2022-11-18T17:20:48;9.10;91.10
43920;DHT22;29578;51.946;5.874;2022-11-18T17:23:14;9.00;91.10
43920;DHT22;29578;51.946;5.874;2022-11-18T17:25:39;9.10;91.10
43920;DHT22;29578;51.946;5.874;2022-11-18T17:28:05;9.10;91.10
43920;DHT22;29578;51.946;5.874;2022-11-18T17:30:31;9.10;91.10
43920;DHT22;29578;51.946;5.874;2022-11-18T17:32:56;9.10;91.00
43920;DHT22;29578;51.946;5.874;2022-11-18T17:35:22;9.10;91.00
43920;DHT22;29578;51.946;5.874;2022-11-18T17:37:47;9.10;91.10
43920;DHT22;29578;51.946;5.874;2022-11-18T17:40:13;9.20;91.10
43920;DHT22;29578;51.946;5.874;2022-11-18T17:42:38;9.20;91.10
43920;DHT22;29578;51.946;5.874;2022-11-18T17:45:05;9.20;91.10
43920;DHT22;29578;51.946;5.874;2022-11-18T17:47:30;9.20;91.10
43920;DHT22;29578;51.946;5.874;2022-11-18T17:49:56;9.10;91.00
43920;DHT22;29578;51.946;5.874;2022-11-18T17:52:22;9.20;91.10
43920;DHT22;29578;51.946;5.874;2022-11-18T17:54:47;9.20;91.00
43920;DHT22;29578;51.946;5.874;2022-11-18T17:57:13;9.30;91.00
43920;DHT22;29578;51.946;5.874;2022-11-18T17:59:39;9.30;91.00
43920;DHT22;29578;51.946;5.874;2022-11-18T18:02:04;9.20;91.00
43920;DHT22;29578;51.946;5.874;2022-11-18T18:04:30;9.20;91.00
43920;DHT22;29578;51.946;5.874;2022-11-18T18:06:55;9.20;91.00
43920;DHT22;29578;51.946;5.874;2022-11-18T18:09:21;9.20;91.00
43920;DHT22;29578;51.946;5.874;2022-11-18T18:11:48;9.20;91.00
43920;DHT22;29578;51.946;5.874;2022-11-18T18:14:13;9.20;91.10
43920;DHT22;29578;51.946;5.874;2022-11-18T18:16:43;9.20;91.00
43920;DHT22;29578;51.946;5.874;2022-11-18T18:19:12;9.10;91.00
43920;DHT22;29578;51.946;5.874;2022-11-18T18:21:38;9.10;91.10
43920;DHT22;29578;51.946;5.874;2022-11-18T18:24:05;9.00;91.10
43920;DHT22;29578;51.946;5.874;2022-11-18T18:26:31;9.00;91.20
43920;DHT22;29578;51.946;5.874;2022-11-18T18:28:58;8.90;91.20
43920;DHT22;29578;51.946;5.874;2022-11-18T18:31:24;8.90;91.30
43920;DHT22;29578;51.946;5.874;2022-11-18T18:33:51;8.90;91.30
43920;DHT22;29578;51.946;5.874;2022-11-18T18:36:17;8.80;91.30
43920;DHT22;29578;51.946;5.874;2022-11-18T18:38:44;8.80;91.30
43920;DHT22;29578;51.946;5.874;2022-11-18T18:41:12;8.80;91.30
43920;DHT22;29578;51.946;5.874;2022-11-18T18:43:38;8.80;91.40
43920;DHT22;29578;51.946;5.874;2022-11-18T18:46:08;8.70;91.30
43920;DHT22;29578;51.946;5.874;2022-11-18T18:48:50;8.60;91.30
43920;DHT22;29578;51.946;5.874;2022-11-18T18:51:16;8.60;91.40
43920;DHT22;29578;51.946;5.874;2022-11-18T18:53:42;8.60;91.40
43920;DHT22;29578;51.946;5.874;2022-11-18T18:56:08;8.60;91.40
43920;DHT22;29578;51.946;5.874;2022-11-18T18:58:34;8.50;91.40
43920;DHT22;29578;51.946;5.874;2022-11-18T19:01:10;8.50;91.40
43920;DHT22;29578;51.946;5.874;2022-11-18T19:03:37;8.50;91.50
43920;DHT22;29578;51.946;5.874;2022-11-18T19:06:18;8.50;91.50
43920;DHT22;29578;51.946;5.874;2022-11-18T19:08:46;8.40;91.50
43920;DHT22;29578;51.946;5.874;2022-11-18T19:11:14;8.40;91.50
43920;DHT22;29578;51.946;5.874;2022-11-18T19:13:53;8.40;91.50
43920;DHT22;29578;51.946;5.874;2022-11-18T19:16:18;8.40;91.50
43920;DHT22;29578;51.946;5.874;2022-11-18T19:18:44;8.30;91.50
43920;DHT22;29578;51.946;5.874;2022-11-18T19:21:10;8.30;91.50
43920;DHT22;29578;51.946;5.874;2022-11-18T19:23:35;8.30;91.50
43920;DHT22;29578;51.946;5.874;2022-11-18T19:26:01;8.20;91.60
43920;DHT22;29578;51.946;5.874;2022-11-18T19:28:26;8.10;91.60
43920;DHT22;29578;51.946;5.874;2022-11-18T19:30:52;8.10;91.60
43920;DHT22;29578;51.946;5.874;2022-11-18T19:33:18;8.00;91.60
43920;DHT22;29578;51.946;5.874;2022-11-18T19:35:43;7.90;91.70
43920;DHT22;29578;51.946;5.874;2022-11-18T19:38:09;7.90;91.70
43920;DHT22;29578;51.946;5.874;2022-11-18T19:40:34;7.80;91.70